Terminal Aerodrome Forecast
Issued by NWS Springfield, MO

Home | Current Version | Previous Version | Text Only | Print | Product List | Glossary On
Versions: 1 2 3 4 5 6 7 8 9 10 11 12 13 14 15 16 17 18 19 20 21 22 23 24 25 26 27 28 29 30 31 32 33 34
889
FTUS43 KSGF 271531 AAD
TAFSGF
TAF AMD
KSGF 271531Z 2716/2812 18006KT P6SM VCSH OVC007
     FM271800 33008KT P6SM OVC008
     FM280100 34006KT 5SM BR BKN012
     FM281100 02005KT 3SM BR BKN007=

USA.gov is the U.S. government's official web portal to all federal, state and local government web resources and services.